< < Back
Terminal Aerodrome Forecast


Current Version              Previous Versions:   1  2  3  4  5  6  7  8  9  

Terminal Aerodrome Forecast

263
FTUS42 KTAE 301500 AAA
TAFTLH
TAF AMD
KTLH 301507Z 3015/3112 36009KT P6SM SCT035 BKN080
      TEMPO 3015/3017 4SM TSRA BKN035CB
     FM310200 31003KT P6SM SKC=



Latest METAR

963
SAUS80 KWBC 311000 RRA
MTRTLH
METAR KTLH 310953Z 00000KT 10SM CLR 07/03 A2993 RMK AO2 SLP133 FIRST
AUGMENTED OBS T00670033 $


USA.gov is the U.S. government's official web portal to all federal, state and local government web resources and services.